Time;durP1;ratioP1;P1;durP2;ratioP2;P2;SDS_P1;SDS_P2;PMS_P1;PMS_P2;Temp;Humidity;BMP_temperature;BMP_pressure;BME280_temperature;BME280_humidity;BME280_pressure;Samples;Min_cycle;Max_cycle;Signal;HPM_P1;HPM_P2
2023/08/20 00:02:23;;;;;;;10.10;9.20;;;;;;;;;;4997704;28;20034;-61
2023/08/20 00:04:48;;;;;;;10.27;9.32;;;;;;;;;;4996923;28;20030;-61
2023/08/20 00:07:15;;;;;;;9.98;9.07;;;;;;;;;;4997154;28;20385;-61
2023/08/20 00:09:41;;;;;;;10.23;9.25;;;;;;;;;;4997446;28;20026;-61
2023/08/20 00:12:07;;;;;;;8.85;8.05;;;;;;;;;;4993774;28;20038;-61
2023/08/20 00:14:50;;;;;;;8.10;7.30;;;;;;;;;;4996805;28;20508;-61
2023/08/20 00:17:16;;;;;;;7.78;7.00;;;;;;;;;;4995292;28;20042;-62
2023/08/20 00:19:41;;;;;;;6.82;6.35;;;;;;;;;;4997142;28;20426;-62
2023/08/20 00:22:07;;;;;;;8.48;7.65;;;;;;;;;;4996889;28;20034;-62
2023/08/20 00:24:32;;;;;;;9.60;8.63;;;;;;;;;;4996510;28;20109;-62
2023/08/20 00:26:57;;;;;;;8.68;7.82;;;;;;;;;;4979664;28;20117;-63
2023/08/20 00:29:23;;;;;;;9.23;8.43;;;;;;;;;;4979080;28;20113;-62
2023/08/20 00:31:49;;;;;;;8.45;7.75;;;;;;;;;;4996897;28;20077;-62
2023/08/20 00:34:14;;;;;;;8.77;7.88;;;;;;;;;;4996484;28;20113;-62
2023/08/20 00:36:40;;;;;;;8.45;7.63;;;;;;;;;;4978849;28;20490;-62
2023/08/20 00:39:06;;;;;;;8.10;7.30;;;;;;;;;;4995523;28;20031;-63
2023/08/20 00:41:31;;;;;;;7.80;7.15;;;;;;;;;;4995073;28;20034;-64
2023/08/20 00:43:57;;;;;;;8.05;7.35;;;;;;;;;;4996753;28;20065;-64
2023/08/20 00:46:22;;;;;;;7.93;7.13;;;;;;;;;;4996860;28;20109;-64
2023/08/20 00:48:49;;;;;;;8.95;7.47;;;;;;;;;;4979326;28;20023;-64
2023/08/20 00:51:14;;;;;;;8.93;8.15;;;;;;;;;;4994841;28;20375;-64
2023/08/20 00:53:39;;;;;;;10.07;8.23;;;;;;;;;;4995194;28;20060;-64
2023/08/20 00:56:05;;;;;;;8.52;7.72;;;;;;;;;;4978716;28;20022;-64
2023/08/20 00:58:31;;;;;;;8.63;7.82;;;;;;;;;;4996497;28;20022;-70
2023/08/20 01:00:56;;;;;;;7.63;7.07;;;;;;;;;;4978400;28;20033;-69
2023/08/20 01:03:22;;;;;;;7.95;7.18;;;;;;;;;;4995949;28;20019;-62
2023/08/20 01:05:50;;;;;;;7.90;7.15;;;;;;;;;;4996376;28;20022;-68
2023/08/20 01:11:03;;;;;;;11.00;8.70;;;;;;;;;;4955895;29;20055;-63
2023/08/20 01:13:28;;;;;;;9.37;8.37;;;;;;;;;;4940126;29;20090;-63
2023/08/20 01:15:54;;;;;;;9.23;8.05;;;;;;;;;;4956795;29;20623;-63
2023/08/20 01:18:39;;;;;;;8.65;7.68;;;;;;;;;;4956899;29;20446;-62
2023/08/20 01:21:10;;;;;;;8.45;7.70;;;;;;;;;;4957332;29;20035;-62
2023/08/20 01:23:41;;;;;;;8.68;7.80;;;;;;;;;;4923782;29;20027;-62
2023/08/20 01:26:26;;;;;;;8.40;7.75;;;;;;;;;;4939509;29;20053;-64
2023/08/20 01:28:52;;;;;;;8.98;8.07;;;;;;;;;;4939387;29;20046;-64
2023/08/20 01:31:18;;;;;;;8.90;8.05;;;;;;;;;;4956606;29;20388;-64
2023/08/20 01:33:44;;;;;;;9.10;8.30;;;;;;;;;;4939467;29;20416;-63
2023/08/20 01:36:09;;;;;;;8.70;8.02;;;;;;;;;;4938610;29;20131;-64
2023/08/20 01:38:35;;;;;;;9.05;8.10;;;;;;;;;;4939656;29;20026;-63
2023/08/20 01:41:03;;;;;;;10.60;8.75;;;;;;;;;;4956726;29;20058;-63
2023/08/20 01:43:28;;;;;;;10.57;7.90;;;;;;;;;;4939137;29;20387;-64
2023/08/20 01:45:53;;;;;;;9.20;8.35;;;;;;;;;;4939111;29;20027;-63
2023/08/20 01:48:19;;;;;;;11.30;8.57;;;;;;;;;;4956298;29;20031;-63
2023/08/20 01:50:45;;;;;;;8.48;7.70;;;;;;;;;;4940115;29;20038;-63
2023/08/20 01:53:11;;;;;;;9.10;7.63;;;;;;;;;;4956224;29;20031;-63
2023/08/20 01:55:36;;;;;;;8.50;7.60;;;;;;;;;;4956188;29;20034;-64
2023/08/20 01:58:02;;;;;;;10.18;9.18;;;;;;;;;;4938847;29;20039;-63
2023/08/20 02:00:28;;;;;;;9.70;8.68;;;;;;;;;;4938935;29;20125;-63
2023/08/20 02:02:53;;;;;;;10.60;9.60;;;;;;;;;;4956915;29;20147;-62
2023/08/20 02:05:19;;;;;;;11.82;10.70;;;;;;;;;;4956554;29;20122;-64
2023/08/20 02:07:44;;;;;;;11.32;10.13;;;;;;;;;;4956259;29;20046;-64
2023/08/20 02:10:10;;;;;;;9.75;8.55;;;;;;;;;;4955804;28;20558;-62
2023/08/20 02:12:36;;;;;;;9.98;8.93;;;;;;;;;;4938947;29;20122;-62
2023/08/20 02:15:03;;;;;;;9.07;8.15;;;;;;;;;;4938912;29;20498;-63
2023/08/20 02:17:29;;;;;;;9.02;8.13;;;;;;;;;;4956068;29;20038;-64
2023/08/20 02:19:54;;;;;;;9.23;8.38;;;;;;;;;;4938631;29;20035;-64
2023/08/20 02:22:20;;;;;;;8.73;7.88;;;;;;;;;;4938637;29;20039;-64
2023/08/20 02:24:46;;;;;;;8.25;7.57;;;;;;;;;;4955741;29;20444;-64
2023/08/20 02:27:11;;;;;;;7.88;7.18;;;;;;;;;;4955721;29;20075;-64
2023/08/20 02:29:37;;;;;;;7.95;7.35;;;;;;;;;;4955728;29;20118;-61
2023/08/20 02:32:02;;;;;;;8.48;7.68;;;;;;;;;;4956189;29;20078;-61
2023/08/20 02:34:29;;;;;;;9.77;7.65;;;;;;;;;;4955902;29;20038;-61
2023/08/20 02:36:54;;;;;;;8.15;7.45;;;;;;;;;;4955520;29;20031;-61
2023/08/20 02:39:20;;;;;;;11.43;9.45;;;;;;;;;;4955630;29;20027;-61
2023/08/20 02:41:45;;;;;;;14.77;11.48;;;;;;;;;;4955585;29;20391;-61
2023/08/20 02:44:11;;;;;;;37.63;24.73;;;;;;;;;;4922737;29;20090;-61
2023/08/20 02:46:38;;;;;;;48.85;29.65;;;;;;;;;;4955524;29;20031;-61
2023/08/20 02:49:03;;;;;;;27.95;19.33;;;;;;;;;;4955228;29;20035;-61
2023/08/20 02:51:28;;;;;;;17.92;13.50;;;;;;;;;;4938320;29;20054;-61
2023/08/20 02:53:54;;;;;;;16.40;13.18;;;;;;;;;;4955463;29;20066;-62
2023/08/20 02:56:19;;;;;;;13.27;11.45;;;;;;;;;;4938194;29;20125;-65
2023/08/20 02:58:45;;;;;;;12.32;11.05;;;;;;;;;;4938448;29;20029;-65
2023/08/20 03:01:21;;;;;;;10.93;9.82;;;;;;;;;;4938418;29;20055;-65
2023/08/20 03:03:47;;;;;;;10.90;9.90;;;;;;;;;;4938113;29;20086;-65
2023/08/20 03:06:13;;;;;;;10.13;9.23;;;;;;;;;;4938093;29;20036;-64
2023/08/20 03:08:39;;;;;;;10.10;9.20;;;;;;;;;;4955133;28;20433;-64
2023/08/20 03:11:04;;;;;;;10.45;8.63;;;;;;;;;;4938377;29;20040;-64
2023/08/20 03:13:29;;;;;;;8.88;7.97;;;;;;;;;;4938092;29;20023;-69
2023/08/20 03:15:55;;;;;;;8.77;8.07;;;;;;;;;;4955413;29;20043;-69
2023/08/20 03:18:20;;;;;;;8.93;8.02;;;;;;;;;;4938078;29;20027;-67
2023/08/20 03:20:46;;;;;;;8.55;7.70;;;;;;;;;;4938057;29;20542;-64
2023/08/20 03:23:11;;;;;;;8.82;8.02;;;;;;;;;;4955415;29;20027;-62
2023/08/20 03:25:37;;;;;;;8.60;7.85;;;;;;;;;;4937956;29;20030;-62
2023/08/20 03:28:03;;;;;;;9.13;8.23;;;;;;;;;;4937983;29;20058;-62
2023/08/20 03:30:28;;;;;;;8.15;7.47;;;;;;;;;;4955663;29;20479;-63
2023/08/20 03:32:54;;;;;;;7.85;7.25;;;;;;;;;;4937848;29;20031;-63
2023/08/20 03:35:20;;;;;;;8.00;7.35;;;;;;;;;;4937883;29;20109;-64
2023/08/20 03:37:45;;;;;;;8.57;7.78;;;;;;;;;;4937793;29;20133;-68
2023/08/20 03:40:11;;;;;;;8.30;7.28;;;;;;;;;;4937829;29;20031;-64
2023/08/20 03:42:36;;;;;;;7.82;7.05;;;;;;;;;;4955488;29;20027;-64
2023/08/20 03:45:02;;;;;;;9.35;8.35;;;;;;;;;;4937744;29;20391;-64
2023/08/20 03:47:28;;;;;;;9.88;8.93;;;;;;;;;;4954962;29;20043;-64
2023/08/20 03:49:53;;;;;;;9.52;8.63;;;;;;;;;;4937762;29;20080;-63
2023/08/20 03:52:18;;;;;;;7.93;7.13;;;;;;;;;;4937727;29;20038;-66
2023/08/20 03:54:43;;;;;;;7.75;7.07;;;;;;;;;;4937688;29;20043;-66
2023/08/20 03:57:09;;;;;;;7.38;6.75;;;;;;;;;;4955034;29;20031;-66
2023/08/20 03:59:34;;;;;;;7.78;6.90;;;;;;;;;;4955675;28;20023;-66
2023/08/20 04:02:00;;;;;;;8.55;7.75;;;;;;;;;;4941025;29;20538;-66
2023/08/20 04:04:25;;;;;;;8.65;7.85;;;;;;;;;;4940997;29;20119;-66
2023/08/20 04:06:51;;;;;;;8.50;7.80;;;;;;;;;;4958466;29;20039;-66
2023/08/20 04:09:16;;;;;;;9.00;8.10;;;;;;;;;;4958383;28;20055;-66
2023/08/20 04:11:42;;;;;;;7.95;7.28;;;;;;;;;;4940969;29;20039;-66
2023/08/20 04:14:08;;;;;;;8.50;7.13;;;;;;;;;;4940887;29;20031;-66
2023/08/20 04:16:34;;;;;;;8.82;8.02;;;;;;;;;;4924939;29;20043;-67
2023/08/20 04:18:59;;;;;;;8.20;7.10;;;;;;;;;;4958269;29;20173;-69
2023/08/20 04:21:25;;;;;;;7.45;6.88;;;;;;;;;;4941088;29;20023;-65
2023/08/20 04:23:50;;;;;;;7.78;6.90;;;;;;;;;;4940702;29;20059;-66
2023/08/20 04:26:15;;;;;;;7.38;6.78;;;;;;;;;;4940669;29;20114;-65
2023/08/20 04:28:41;;;;;;;7.85;7.15;;;;;;;;;;4940605;29;20435;-67
2023/08/20 04:31:07;;;;;;;7.70;7.00;;;;;;;;;;4940526;29;20196;-67
2023/08/20 04:33:45;;;;;;;7.85;7.18;;;;;;;;;;4958249;29;20113;-62
2023/08/20 04:36:12;;;;;;;7.97;7.28;;;;;;;;;;4940667;29;20475;-63
2023/08/20 04:38:37;;;;;;;8.18;7.38;;;;;;;;;;4924565;29;20043;-63
2023/08/20 04:41:02;;;;;;;9.30;8.38;;;;;;;;;;4940346;29;20463;-63
2023/08/20 04:43:28;;;;;;;8.57;7.82;;;;;;;;;;4957793;29;20106;-63
2023/08/20 04:45:53;;;;;;;10.52;9.07;;;;;;;;;;4940513;29;20034;-63
2023/08/20 04:48:21;;;;;;;9.18;8.30;;;;;;;;;;4940480;29;20061;-61
2023/08/20 04:50:46;;;;;;;8.25;7.43;;;;;;;;;;4940198;29;20058;-61
2023/08/20 04:53:13;;;;;;;8.13;7.43;;;;;;;;;;4924428;29;20383;-61
2023/08/20 04:55:38;;;;;;;11.13;8.68;;;;;;;;;;4957325;29;20034;-62
2023/08/20 04:58:03;;;;;;;9.40;7.65;;;;;;;;;;4957200;29;20479;-62
2023/08/20 05:00:31;;;;;;;9.13;8.25;;;;;;;;;;4939882;29;20019;-74
2023/08/20 05:03:04;;;;;;;8.52;7.78;;;;;;;;;;4940116;29;20042;-65
2023/08/20 05:05:31;;;;;;;9.20;8.30;;;;;;;;;;4942686;28;20019;-66
2023/08/20 05:07:56;;;;;;;9.25;8.20;;;;;;;;;;4925320;29;20035;-69
2023/08/20 05:10:22;;;;;;;9.38;8.55;;;;;;;;;;4923276;28;20050;-70
2023/08/20 05:12:47;;;;;;;9.35;8.50;;;;;;;;;;4942018;28;20031;-70
2023/08/20 05:15:14;;;;;;;10.45;8.95;;;;;;;;;;4949445;28;20030;-69
2023/08/20 05:17:39;;;;;;;9.88;8.88;;;;;;;;;;4955613;28;20031;-70
2023/08/20 05:20:06;;;;;;;9.85;8.85;;;;;;;;;;4975035;28;20035;-63
2023/08/20 05:22:31;;;;;;;9.90;8.90;;;;;;;;;;4953909;28;20049;-63
2023/08/20 05:24:56;;;;;;;11.05;9.95;;;;;;;;;;4947793;28;20028;-63
2023/08/20 05:27:22;;;;;;;9.95;9.05;;;;;;;;;;4946603;28;20365;-63
2023/08/20 05:29:49;;;;;;;11.43;9.48;;;;;;;;;;4961628;28;20035;-63
2023/08/20 05:32:16;;;;;;;12.55;10.32;;;;;;;;;;4947253;28;20047;-69
2023/08/20 05:34:42;;;;;;;12.88;11.38;;;;;;;;;;4948528;28;20148;-63
2023/08/20 05:37:08;;;;;;;18.65;12.57;;;;;;;;;;4928108;28;20024;-63
2023/08/20 05:39:38;;;;;;;22.27;14.63;;;;;;;;;;4964898;28;20061;-63
2023/08/20 05:42:03;;;;;;;23.20;15.35;;;;;;;;;;4948110;28;20434;-63
2023/08/20 05:44:29;;;;;;;23.58;15.40;;;;;;;;;;4946043;28;20479;-63
2023/08/20 05:46:55;;;;;;;27.70;15.90;;;;;;;;;;4946992;28;20035;-63
2023/08/20 05:49:23;;;;;;;28.50;17.15;;;;;;;;;;4940915;28;20026;-63
2023/08/20 05:51:48;;;;;;;25.23;14.55;;;;;;;;;;4947352;28;20497;-70
2023/08/20 05:54:14;;;;;;;23.95;16.40;;;;;;;;;;4947058;28;20542;-70
2023/08/20 05:56:39;;;;;;;22.08;14.57;;;;;;;;;;4943426;29;20123;-70
2023/08/20 05:59:04;;;;;;;16.83;13.00;;;;;;;;;;4960336;28;20379;-66
2023/08/20 06:01:31;;;;;;;20.27;14.48;;;;;;;;;;4948159;28;20019;-64
2023/08/20 06:03:56;;;;;;;18.02;13.82;;;;;;;;;;4963590;28;20035;-63
2023/08/20 06:06:22;;;;;;;18.55;13.40;;;;;;;;;;4963780;28;20042;-63
2023/08/20 06:08:47;;;;;;;17.50;12.93;;;;;;;;;;4964620;28;20031;-63
2023/08/20 06:11:12;;;;;;;21.67;14.10;;;;;;;;;;4962900;28;20054;-63
2023/08/20 06:13:39;;;;;;;16.80;13.18;;;;;;;;;;4964346;28;20114;-63
2023/08/20 06:16:04;;;;;;;18.48;14.55;;;;;;;;;;4964423;28;20031;-69
2023/08/20 06:18:30;;;;;;;19.38;13.23;;;;;;;;;;4962927;28;20058;-63
2023/08/20 06:20:55;;;;;;;19.40;14.60;;;;;;;;;;4964566;28;20089;-69
2023/08/20 06:23:20;;;;;;;20.30;14.98;;;;;;;;;;4963054;28;20497;-70
2023/08/20 06:25:46;;;;;;;19.65;15.02;;;;;;;;;;4945725;28;20479;-70
2023/08/20 06:28:11;;;;;;;25.30;13.68;;;;;;;;;;4964685;28;20057;-70
2023/08/20 06:30:37;;;;;;;19.85;14.13;;;;;;;;;;4946099;28;20057;-63
2023/08/20 06:33:02;;;;;;;18.52;14.40;;;;;;;;;;4963432;28;20486;-70
2023/08/20 06:35:27;;;;;;;25.65;17.83;;;;;;;;;;4960779;28;20050;-70
2023/08/20 06:37:53;;;;;;;19.30;13.65;;;;;;;;;;4970319;28;20078;-68
2023/08/20 06:40:18;;;;;;;17.83;14.20;;;;;;;;;;4963804;28;20081;-69
2023/08/20 06:42:44;;;;;;;19.25;14.60;;;;;;;;;;4947884;28;20101;-68
2023/08/20 06:45:09;;;;;;;17.85;14.13;;;;;;;;;;4973212;28;20113;-68
2023/08/20 06:47:35;;;;;;;20.48;14.13;;;;;;;;;;4973863;28;20031;-68
2023/08/20 06:50:01;;;;;;;19.52;16.00;;;;;;;;;;4974269;28;20117;-68
2023/08/20 06:52:29;;;;;;;24.63;17.13;;;;;;;;;;4956926;28;20088;-69
2023/08/20 06:54:55;;;;;;;15.73;13.23;;;;;;;;;;4974396;28;20031;-68
2023/08/20 06:57:20;;;;;;;21.40;16.20;;;;;;;;;;4943896;29;20367;-68
2023/08/20 06:59:45;;;;;;;21.88;15.20;;;;;;;;;;4937257;29;20348;-68
2023/08/20 07:02:11;;;;;;;19.35;14.55;;;;;;;;;;4964103;28;20035;-68
2023/08/20 07:04:37;;;;;;;17.25;14.23;;;;;;;;;;4973848;28;20089;-68
2023/08/20 07:07:06;;;;;;;18.17;12.27;;;;;;;;;;4956576;28;20057;-68
2023/08/20 07:09:32;;;;;;;20.35;15.68;;;;;;;;;;4941357;28;20114;-68
2023/08/20 07:11:57;;;;;;;19.65;15.55;;;;;;;;;;4968412;28;20035;-68
2023/08/20 07:14:22;;;;;;;14.50;12.52;;;;;;;;;;4936969;29;20034;-68
2023/08/20 07:16:48;;;;;;;16.45;12.30;;;;;;;;;;4957032;28;20367;-68
2023/08/20 07:19:13;;;;;;;15.18;12.20;;;;;;;;;;4956490;28;20114;-68
2023/08/20 07:21:38;;;;;;;17.73;12.85;;;;;;;;;;4955968;28;20336;-68
2023/08/20 07:24:04;;;;;;;19.08;13.57;;;;;;;;;;4954872;29;20034;-67
2023/08/20 07:26:29;;;;;;;15.45;11.63;;;;;;;;;;4954646;29;20063;-68
2023/08/20 07:28:56;;;;;;;17.35;12.98;;;;;;;;;;4954411;29;20027;-68
2023/08/20 07:31:29;;;;;;;20.20;15.77;;;;;;;;;;4937213;29;20110;-68
2023/08/20 07:33:56;;;;;;;19.42;13.77;;;;;;;;;;4954201;28;20039;-68
2023/08/20 07:36:21;;;;;;;15.25;12.73;;;;;;;;;;4957215;29;20061;-69
2023/08/20 07:38:48;;;;;;;16.55;13.07;;;;;;;;;;4957233;29;20059;-67
2023/08/20 07:41:14;;;;;;;14.75;11.43;;;;;;;;;;4957858;29;20035;-64
2023/08/20 07:43:40;;;;;;;15.65;12.25;;;;;;;;;;4958233;29;20162;-64
2023/08/20 07:46:07;;;;;;;17.38;13.52;;;;;;;;;;4941084;29;20036;-64
2023/08/20 07:48:33;;;;;;;16.48;13.38;;;;;;;;;;4958283;29;20078;-67
2023/08/20 07:50:58;;;;;;;19.73;14.93;;;;;;;;;;4957965;29;20059;-67
2023/08/20 07:53:23;;;;;;;20.05;14.90;;;;;;;;;;4957895;29;20027;-66
2023/08/20 07:55:49;;;;;;;17.40;14.05;;;;;;;;;;4957450;29;20170;-67
2023/08/20 07:58:14;;;;;;;16.08;12.43;;;;;;;;;;4953018;28;20023;-61
2023/08/20 08:00:40;;;;;;;15.10;13.52;;;;;;;;;;4966252;28;20110;-61
2023/08/20 08:03:05;;;;;;;14.00;11.90;;;;;;;;;;4957185;29;20038;-61
2023/08/20 08:05:30;;;;;;;18.92;14.68;;;;;;;;;;4967612;28;20035;-67
2023/08/20 08:07:56;;;;;;;16.20;13.07;;;;;;;;;;4965289;28;20542;-61
2023/08/20 08:10:22;;;;;;;14.43;11.52;;;;;;;;;;4949123;28;20046;-67
2023/08/20 08:12:47;;;;;;;14.93;13.27;;;;;;;;;;4964498;28;20111;-67
2023/08/20 08:15:13;;;;;;;13.95;12.00;;;;;;;;;;4939989;29;20098;-68
2023/08/20 08:17:38;;;;;;;13.48;12.07;;;;;;;;;;4956950;29;20086;-67
2023/08/20 08:20:04;;;;;;;15.23;12.15;;;;;;;;;;4968748;28;20041;-62
2023/08/20 08:22:29;;;;;;;16.33;13.52;;;;;;;;;;4943212;28;20054;-62
2023/08/20 08:24:55;;;;;;;15.05;13.18;;;;;;;;;;4976529;28;20105;-62
2023/08/20 08:27:20;;;;;;;12.63;11.43;;;;;;;;;;4976644;28;20023;-62
2023/08/20 08:29:46;;;;;;;12.68;11.07;;;;;;;;;;4976391;28;20050;-61
2023/08/20 08:32:11;;;;;;;12.05;10.88;;;;;;;;;;4976598;28;20394;-68
2023/08/20 08:34:37;;;;;;;12.98;11.40;;;;;;;;;;4968916;28;20027;-68
2023/08/20 08:37:02;;;;;;;13.98;11.88;;;;;;;;;;4966876;28;20026;-68
2023/08/20 08:39:27;;;;;;;12.23;11.02;;;;;;;;;;4965223;28;20094;-69
2023/08/20 08:41:55;;;;;;;12.65;11.48;;;;;;;;;;4965637;28;20054;-68
2023/08/20 08:44:21;;;;;;;10.73;9.55;;;;;;;;;;4949531;28;20488;-68
2023/08/20 08:46:49;;;;;;;11.32;10.15;;;;;;;;;;4958271;28;20110;-68
2023/08/20 08:49:16;;;;;;;13.00;10.77;;;;;;;;;;4957094;29;20031;-68
2023/08/20 08:51:44;;;;;;;14.55;11.35;;;;;;;;;;4957666;29;20031;-67
2023/08/20 08:54:10;;;;;;;10.80;9.68;;;;;;;;;;4957001;29;20023;-68
2023/08/20 08:56:35;;;;;;;11.60;10.40;;;;;;;;;;4957536;29;20062;-67
2023/08/20 08:59:00;;;;;;;9.30;8.50;;;;;;;;;;4957597;29;20027;-67
2023/08/20 09:01:26;;;;;;;9.68;8.73;;;;;;;;;;4957229;29;20047;-67
2023/08/20 09:03:51;;;;;;;9.40;8.60;;;;;;;;;;4957461;29;20038;-67
2023/08/20 09:06:16;;;;;;;9.52;8.52;;;;;;;;;;4956498;29;20083;-67
2023/08/20 09:08:42;;;;;;;10.50;9.50;;;;;;;;;;4937797;28;20534;-67
2023/08/20 09:11:07;;;;;;;9.85;8.93;;;;;;;;;;4937911;29;20031;-67
2023/08/20 09:13:32;;;;;;;9.57;8.57;;;;;;;;;;4938133;29;20042;-67
2023/08/20 09:15:59;;;;;;;9.48;8.65;;;;;;;;;;4954961;29;20479;-67
2023/08/20 09:18:24;;;;;;;9.10;8.20;;;;;;;;;;4955087;29;20031;-67
2023/08/20 09:20:50;;;;;;;9.05;7.82;;;;;;;;;;4955127;29;20027;-67
2023/08/20 09:23:15;;;;;;;9.02;8.18;;;;;;;;;;4937704;29;20027;-67
2023/08/20 09:25:41;;;;;;;9.82;8.88;;;;;;;;;;4955351;29;20476;-67
2023/08/20 09:28:07;;;;;;;9.30;8.25;;;;;;;;;;4938493;29;20131;-67
2023/08/20 09:30:32;;;;;;;9.10;8.25;;;;;;;;;;4939700;29;20075;-67
2023/08/20 09:33:05;;;;;;;8.90;8.07;;;;;;;;;;4956910;29;20042;-67
2023/08/20 09:35:32;;;;;;;10.50;9.50;;;;;;;;;;4956600;29;20088;-67
2023/08/20 09:38:05;;;;;;;9.57;8.77;;;;;;;;;;4956764;29;20380;-68
2023/08/20 09:40:30;;;;;;;9.80;8.93;;;;;;;;;;4956769;29;20035;-68
2023/08/20 09:42:57;;;;;;;9.38;8.32;;;;;;;;;;4939389;29;20480;-67
2023/08/20 09:45:27;;;;;;;9.30;8.40;;;;;;;;;;4956464;29;20039;-67
2023/08/20 09:47:54;;;;;;;9.07;8.27;;;;;;;;;;4939144;29;20054;-67
2023/08/20 09:50:21;;;;;;;9.23;8.05;;;;;;;;;;4939126;29;20483;-67
2023/08/20 09:52:52;;;;;;;9.80;8.85;;;;;;;;;;4956286;29;20036;-67
2023/08/20 09:55:22;;;;;;;9.50;8.63;;;;;;;;;;4956567;29;20046;-67
2023/08/20 09:57:48;;;;;;;8.82;8.02;;;;;;;;;;4955667;28;20035;-67
2023/08/20 10:00:14;;;;;;;9.15;8.30;;;;;;;;;;4956132;29;20481;-67
2023/08/20 10:02:39;;;;;;;8.85;8.10;;;;;;;;;;4956128;29;20043;-67
2023/08/20 10:05:07;;;;;;;9.07;8.25;;;;;;;;;;4956075;29;20108;-67
2023/08/20 10:07:34;;;;;;;8.65;7.95;;;;;;;;;;4956294;29;20036;-67
2023/08/20 10:10:04;;;;;;;9.98;9.00;;;;;;;;;;4955930;28;20410;-67
2023/08/20 10:12:29;;;;;;;11.27;8.15;;;;;;;;;;4956283;29;20042;-67
2023/08/20 10:15:01;;;;;;;9.73;8.52;;;;;;;;;;4955939;29;20126;-67
2023/08/20 10:17:31;;;;;;;9.48;8.57;;;;;;;;;;4956140;29;20379;-67
2023/08/20 10:19:57;;;;;;;8.45;7.75;;;;;;;;;;4955867;29;20387;-67
2023/08/20 10:22:40;;;;;;;8.55;7.88;;;;;;;;;;4939185;29;20031;-68
2023/08/20 10:25:09;;;;;;;8.73;7.82;;;;;;;;;;4956018;29;20043;-67
2023/08/20 10:27:35;;;;;;;9.40;8.57;;;;;;;;;;4955749;29;20023;-67
2023/08/20 10:30:01;;;;;;;9.35;8.57;;;;;;;;;;4938902;29;20027;-67
2023/08/20 10:32:47;;;;;;;9.40;8.45;;;;;;;;;;4938447;29;20062;-67
2023/08/20 10:35:15;;;;;;;8.77;7.50;;;;;;;;;;4955738;28;20150;-67
2023/08/20 10:38:00;;;;;;;8.85;8.05;;;;;;;;;;4955827;29;20022;-67
2023/08/20 10:40:44;;;;;;;8.18;7.53;;;;;;;;;;4922811;29;20035;-67
2023/08/20 10:43:09;;;;;;;9.15;8.23;;;;;;;;;;4938618;29;20027;-67
2023/08/20 10:45:43;;;;;;;9.07;8.18;;;;;;;;;;4955805;29;20070;-67
2023/08/20 10:48:11;;;;;;;8.40;7.80;;;;;;;;;;4955551;29;20063;-67
2023/08/20 10:50:36;;;;;;;7.93;7.32;;;;;;;;;;4955733;29;20027;-67
2023/08/20 10:53:03;;;;;;;9.57;8.55;;;;;;;;;;4955717;29;20086;-67
2023/08/20 10:55:30;;;;;;;9.07;8.27;;;;;;;;;;4955754;29;20046;-67
2023/08/20 10:57:56;;;;;;;9.98;9.07;;;;;;;;;;4955547;29;20030;-68
2023/08/20 11:00:22;;;;;;;9.95;9.13;;;;;;;;;;4955424;29;20391;-67
2023/08/20 11:02:48;;;;;;;10.40;8.77;;;;;;;;;;4955375;29;20043;-67
2023/08/20 11:05:17;;;;;;;7.93;7.22;;;;;;;;;;4955330;29;20036;-67
2023/08/20 11:07:45;;;;;;;8.43;7.57;;;;;;;;;;4938076;29;20456;-67
2023/08/20 11:10:10;;;;;;;8.45;7.82;;;;;;;;;;4958168;28;20078;-67
2023/08/20 11:12:35;;;;;;;8.40;7.70;;;;;;;;;;4959446;29;20159;-67
2023/08/20 11:15:02;;;;;;;8.52;7.65;;;;;;;;;;4959441;29;20038;-67
2023/08/20 11:17:28;;;;;;;7.63;6.85;;;;;;;;;;4942259;29;20086;-67
2023/08/20 11:19:53;;;;;;;8.20;7.50;;;;;;;;;;4959075;29;20428;-67
2023/08/20 11:22:18;;;;;;;9.02;7.95;;;;;;;;;;4959017;29;20019;-62
2023/08/20 11:24:44;;;;;;;9.73;8.80;;;;;;;;;;4942396;29;20475;-62
2023/08/20 11:27:09;;;;;;;9.80;6.93;;;;;;;;;;4958977;29;20454;-62
2023/08/20 11:29:34;;;;;;;7.60;7.07;;;;;;;;;;4959405;29;20043;-62
2023/08/20 11:32:02;;;;;;;7.82;7.05;;;;;;;;;;4959113;29;20023;-62
2023/08/20 11:34:28;;;;;;;8.68;8.02;;;;;;;;;;4958838;29;20059;-62
2023/08/20 11:36:54;;;;;;;8.27;7.45;;;;;;;;;;4958993;29;20459;-62
2023/08/20 11:39:20;;;;;;;7.78;7.18;;;;;;;;;;4958758;29;20027;-62
2023/08/20 11:41:48;;;;;;;8.18;7.57;;;;;;;;;;4996043;23;20521;-92
2023/08/20 11:44:23;;;;;;;8.35;7.55;;;;;;;;;;4980903;28;20034;-92
2023/08/20 11:46:50;;;;;;;7.95;7.35;;;;;;;;;;4981307;28;20030;-92
2023/08/20 11:49:26;;;;;;;7.20;6.72;;;;;;;;;;4965090;28;20117;-91
2023/08/20 11:51:54;;;;;;;7.30;6.70;;;;;;;;;;4981030;28;20058;-92
2023/08/20 11:54:22;;;;;;;6.63;6.00;;;;;;;;;;4980784;28;20084;-92
2023/08/20 11:56:50;;;;;;;8.02;7.22;;;;;;;;;;4980609;28;20480;-92
2023/08/20 11:59:17;;;;;;;7.38;6.85;;;;;;;;;;4964529;28;20069;-92
2023/08/20 12:01:42;;;;;;;8.60;6.57;;;;;;;;;;4980249;28;20030;-93
2023/08/20 12:04:16;;;;;;;7.07;6.57;;;;;;;;;;4965001;28;20037;-92
2023/08/20 12:07:14;;;;;;;;;;;;;;;;;;;;;
2023/08/20 12:11:16;;;;;;;7.70;7.20;;;;;;;;;;4984137;28;20062;-92
2023/08/20 12:13:52;;;;;;;7.40;6.70;;;;;;;;;;4960798;28;20042;-91
2023/08/20 12:16:24;;;;;;;7.90;7.18;;;;;;;;;;4979683;28;20604;-92
2023/08/20 12:18:52;;;;;;;6.00;5.43;;;;;;;;;;4979708;28;20031;-92
2023/08/20 12:21:18;;;;;;;7.20;6.70;;;;;;;;;;4978392;28;20053;-90
2023/08/20 12:23:44;;;;;;;6.93;6.32;;;;;;;;;;4979246;28;20019;-91
2023/08/20 12:26:09;;;;;;;7.00;6.45;;;;;;;;;;4963087;28;20054;-91
2023/08/20 12:28:35;;;;;;;7.50;6.85;;;;;;;;;;4979390;28;20022;-91
2023/08/20 12:31:03;;;;;;;6.30;5.80;;;;;;;;;;4979344;28;20018;-91
2023/08/20 12:33:28;;;;;;;6.95;6.38;;;;;;;;;;4979142;28;20048;-91
2023/08/20 12:35:54;;;;;;;5.97;5.47;;;;;;;;;;4962937;28;20030;-91
2023/08/20 12:38:22;;;;;;;6.60;6.10;;;;;;;;;;4979112;28;20026;-91
2023/08/20 12:40:48;;;;;;;6.90;6.45;;;;;;;;;;4978707;28;20074;-92
2023/08/20 12:43:13;;;;;;;7.25;6.47;;;;;;;;;;4962681;28;20493;-91
2023/08/20 12:45:41;;;;;;;5.38;5.00;;;;;;;;;;4978923;28;20062;-91
2023/08/20 12:48:09;;;;;;;6.00;5.50;;;;;;;;;;4978812;28;20038;-91
2023/08/20 12:50:35;;;;;;;8.18;5.75;;;;;;;;;;4979299;28;20114;-92
2023/08/20 12:53:00;;;;;;;6.85;6.28;;;;;;;;;;4979146;28;20054;-92
2023/08/20 12:55:28;;;;;;;5.78;5.38;;;;;;;;;;4962617;28;20034;-92
2023/08/20 12:57:55;;;;;;;7.15;6.45;;;;;;;;;;4978975;28;20374;-91
2023/08/20 13:00:24;;;;;;;6.68;6.15;;;;;;;;;;4962266;28;20022;-91
2023/08/20 13:02:53;;;;;;;7.63;6.97;;;;;;;;;;4978803;28;20030;-93
2023/08/20 13:05:25;;;;;;;6.38;5.97;;;;;;;;;;4978649;28;20536;-93
2023/08/20 13:07:53;;;;;;;6.78;6.18;;;;;;;;;;4978642;28;20034;-91
2023/08/20 13:10:19;;;;;;;5.95;5.55;;;;;;;;;;4961776;28;20066;-91
2023/08/20 13:12:49;;;;;;;7.30;6.15;;;;;;;;;;4961414;28;20030;-91
2023/08/20 13:15:16;;;;;;;5.82;5.43;;;;;;;;;;4978259;28;20045;-91
2023/08/20 13:17:41;;;;;;;6.07;5.63;;;;;;;;;;4978134;28;20501;-92
2023/08/20 13:20:10;;;;;;;6.38;5.88;;;;;;;;;;4962363;28;20026;-91
2023/08/20 13:22:35;;;;;;;6.65;6.15;;;;;;;;;;4977760;28;20477;-90
2023/08/20 13:25:01;;;;;;;6.60;6.18;;;;;;;;;;4978242;28;20033;-91
2023/08/20 13:27:26;;;;;;;6.55;5.93;;;;;;;;;;4978075;28;20065;-92
2023/08/20 13:29:52;;;;;;;6.05;5.47;;;;;;;;;;4961817;28;20042;-91
2023/08/20 13:32:27;;;;;;;5.25;4.95;;;;;;;;;;4978229;28;20022;-92
2023/08/20 13:34:57;;;;;;;6.13;5.63;;;;;;;;;;4978292;28;20030;-91
2023/08/20 13:37:25;;;;;;;5.45;5.15;;;;;;;;;;4977438;28;20101;-91
2023/08/20 13:39:51;;;;;;;6.47;5.88;;;;;;;;;;4977750;28;20630;-92
2023/08/20 13:42:28;;;;;;;5.40;5.10;;;;;;;;;;4994111;28;20058;-91
2023/08/20 13:45:11;;;;;;;6.03;5.57;;;;;;;;;;4981433;28;20066;-90
2023/08/20 13:48:04;;;;;;;6.03;5.53;;;;;;;;;;4998725;28;20041;-92
2023/08/20 13:50:34;;;;;;;6.00;5.57;;;;;;;;;;4997857;28;20030;-91
2023/08/20 13:53:13;;;;;;;5.63;5.13;;;;;;;;;;4997800;28;20033;-93
2023/08/20 13:55:41;;;;;;;4.93;4.65;;;;;;;;;;4997535;28;20176;-90
2023/08/20 13:58:19;;;;;;;;;;;;;;;;;;;;;
2023/08/20 14:00:48;;;;;;;6.38;5.90;;;;;;;;;;4996879;28;20038;-90
2023/08/20 14:03:14;;;;;;;5.80;5.43;;;;;;;;;;4980551;28;20109;-92
2023/08/20 14:05:44;;;;;;;5.45;4.95;;;;;;;;;;4996777;28;20033;-90
2023/08/20 14:08:22;;;;;;;6.28;5.68;;;;;;;;;;4996985;28;20030;-91
2023/08/20 14:10:59;;;;;;;5.75;5.40;;;;;;;;;;4982223;28;20022;-92
2023/08/20 14:13:27;;;;;;;5.55;5.15;;;;;;;;;;4980966;28;20014;-90
2023/08/20 14:15:53;;;;;;;6.22;5.75;;;;;;;;;;4979984;28;20041;-90
2023/08/20 14:18:18;;;;;;;5.82;5.32;;;;;;;;;;4980292;28;20049;-91
2023/08/20 14:20:54;;;;;;;5.75;5.35;;;;;;;;;;5003039;28;20129;-92
2023/08/20 14:23:20;;;;;;;6.13;5.68;;;;;;;;;;4988934;28;20098;-90
2023/08/20 14:25:54;;;;;;;6.07;5.68;;;;;;;;;;4989932;28;20112;-92
2023/08/20 14:28:27;;;;;;;6.05;5.57;;;;;;;;;;4986321;28;20025;-92
2023/08/20 14:31:12;;;;;;;5.40;5.10;;;;;;;;;;4987757;28;20121;-90
2023/08/20 14:33:38;;;;;;;6.07;5.60;;;;;;;;;;4997000;28;20033;-90
2023/08/20 14:39:15;;;;;;;6.50;5.90;;;;;;;;;;4964768;28;20087;-91
2023/08/20 14:41:45;;;;;;;5.68;5.28;;;;;;;;;;4985951;28;20042;-92
2023/08/20 14:44:35;;;;;;;7.00;6.50;;;;;;;;;;4980673;28;20034;-91